Terminal Aerodrome Forecast
Issued by NWS Mt. Holly, NJ

Home | Current Version | Previous Version | Text Only | Print | Product List | Glossary On
Versions: 1 2 3 4 5 6 7 8 9 10 11 12 13 14 15 16 17 18 19 20 21 22 23 24 25 26 27
000
FTUS41 KPHI 270500
TAFACY
TAF
KACY 270531Z 2706/2806 29008KT P6SM BKN015
     FM270800 29006KT P6SM SCT045 BKN080
     FM271400 30010KT P6SM BKN045
     FM272200 31008KT P6SM SCT045=

USA.gov is the U.S. government's official web portal to all federal, state and local government web resources and services.